Accueil
METAR-TAF:

METAR-TAF

Aéroports :

Aérodrome de Granges

Granges, Suisse

latitude: 47-10-53N, longitude: 007-24-59E, altitude: 430 m

Observation

Le bulletin a été fait il y a 17 minutes, à 17:20 UTC
Vent 3 kt de est/nord-est
Température 16°C
Humidité 77%
Pression 1020 hPa
Visibilité 10 km ou plus
Ciel couvert à une hauteur de 3400 ft

METAR: LSZG 281720Z 07003KT 9999 OVC034 16/12 Q1020 NOSIG

Heure: 19:37 (17:37 UTC)

Prévision

Le bulletin a été fait il y a 3 heures et 12 minutes, à 14:25 UTC
Prévision valable du 28 à 15 UTC au 28 à 24 UTC
Vent 7 kt de est
Visibilité 10 km ou plus
Nuages fragmentés à une hauteur de 3500 ft
Probabilité 30% :
Temporairement
du 28 à 18 UTC au 28 à 24 UTC
Nuages épars à une hauteur de 5000 ft, Cumulus congestus.
averses de pluie

TAF: LSZG 281425Z 2815/2824 09007KT 9999 BKN035 PROB30 TEMPO 2818/2824 SHRA SCT050TCU

Observations et prévisions météorologiques de plus de 4000 aéroports (messages METAR et TAF).

Les stations disponibles sont représentées par des disques jaunes et rouges sur la carte.

Passer la souris dessus pour voir le nom de la station.

Cliquer dessus pour voir les observations et prévisions météorologiques.

Pour changer de carte: cliquez sur les boutons verts avec une croix noire pour zoomer, sur le bouton vert avec un tiret pour effectuer un zoom arrière, ou sur les flèches vertes pour les cartes adjacentes.


METAR-TAF: